sensor_id;sensor_type;location;lat;lon;timestamp;pressure;altitude;pressure_sealevel;temperature;humidity
30073;BME280;16897;52.422;13.678;2024-02-28T00:03:24;101459.03;;;8.47;56.73
30073;BME280;16897;52.422;13.678;2024-02-28T00:07:26;101447.06;;;8.43;56.98
30073;BME280;16897;52.422;13.678;2024-02-28T00:11:27;101448.94;;;8.37;56.71
30073;BME280;16897;52.422;13.678;2024-02-28T00:15:28;101454.00;;;8.42;56.95
30073;BME280;16897;52.422;13.678;2024-02-28T00:19:30;101452.38;;;8.38;56.75
30073;BME280;16897;52.422;13.678;2024-02-28T00:23:31;101440.31;;;8.35;56.89
30073;BME280;16897;52.422;13.678;2024-02-28T00:27:34;101443.88;;;8.33;56.91
30073;BME280;16897;52.422;13.678;2024-02-28T00:31:35;101435.53;;;8.23;56.91
30073;BME280;16897;52.422;13.678;2024-02-28T00:35:37;101444.81;;;8.30;57.05
30073;BME280;16897;52.422;13.678;2024-02-28T00:39:38;101441.50;;;8.27;56.85
30073;BME280;16897;52.422;13.678;2024-02-28T00:43:40;101466.34;;;8.35;56.99
30073;BME280;16897;52.422;13.678;2024-02-28T00:47:41;101463.03;;;8.30;56.92
30073;BME280;16897;52.422;13.678;2024-02-28T00:51:43;101451.19;;;8.22;56.99
30073;BME280;16897;52.422;13.678;2024-02-28T00:55:44;101443.56;;;8.15;56.94
30073;BME280;16897;52.422;13.678;2024-02-28T00:59:46;101470.81;;;8.32;57.01
30073;BME280;16897;52.422;13.678;2024-02-28T01:03:47;101467.22;;;8.34;56.77
30073;BME280;16897;52.422;13.678;2024-02-28T01:07:49;101474.25;;;8.32;56.82
30073;BME280;16897;52.422;13.678;2024-02-28T01:11:50;101480.22;;;8.34;57.06
30073;BME280;16897;52.422;13.678;2024-02-28T01:15:52;101481.97;;;8.35;57.01
30073;BME280;16897;52.422;13.678;2024-02-28T01:19:53;101444.34;;;8.19;57.05
30073;BME280;16897;52.422;13.678;2024-02-28T01:23:55;101454.69;;;8.20;56.90
30073;BME280;16897;52.422;13.678;2024-02-28T01:27:56;101465.97;;;8.21;57.10
30073;BME280;16897;52.422;13.678;2024-02-28T01:32:01;101474.25;;;8.32;56.91
30073;BME280;16897;52.422;13.678;2024-02-28T01:36:04;101478.66;;;8.30;56.92
30073;BME280;16897;52.422;13.678;2024-02-28T01:40:06;101471.06;;;8.24;57.08
30073;BME280;16897;52.422;13.678;2024-02-28T01:44:08;101460.69;;;8.23;57.07
30073;BME280;16897;52.422;13.678;2024-02-28T01:48:10;101458.81;;;8.26;57.13
30073;BME280;16897;52.422;13.678;2024-02-28T01:52:13;101455.28;;;8.29;57.01
30073;BME280;16897;52.422;13.678;2024-02-28T01:56:15;101435.94;;;8.11;57.01
30073;BME280;16897;52.422;13.678;2024-02-28T02:00:17;101433.34;;;8.11;57.10
30073;BME280;16897;52.422;13.678;2024-02-28T02:04:20;101471.59;;;8.34;57.05
30073;BME280;16897;52.422;13.678;2024-02-28T02:08:21;101446.09;;;8.18;56.88
30073;BME280;16897;52.422;13.678;2024-02-28T02:12:24;101463.16;;;8.27;56.95
30073;BME280;16897;52.422;13.678;2024-02-28T02:16:25;101457.94;;;8.27;56.99
30073;BME280;16897;52.422;13.678;2024-02-28T02:20:32;101459.63;;;8.28;56.91
30073;BME280;16897;52.422;13.678;2024-02-28T02:24:36;101452.06;;;8.20;57.00
30073;BME280;16897;52.422;13.678;2024-02-28T02:28:38;101455.56;;;8.21;56.87
30073;BME280;16897;52.422;13.678;2024-02-28T02:32:39;101437.72;;;8.10;57.15
30073;BME280;16897;52.422;13.678;2024-02-28T02:36:41;101461.78;;;8.15;57.13
30073;BME280;16897;52.422;13.678;2024-02-28T02:40:42;101472.06;;;8.20;57.15
30073;BME280;16897;52.422;13.678;2024-02-28T02:44:44;101465.09;;;8.20;57.14
30073;BME280;16897;52.422;13.678;2024-02-28T02:48:45;101481.56;;;8.21;57.14
30073;BME280;16897;52.422;13.678;2024-02-28T02:52:47;101459.56;;;8.05;57.03
30073;BME280;16897;52.422;13.678;2024-02-28T02:56:48;101446.09;;;7.92;57.17
30073;BME280;16897;52.422;13.678;2024-02-28T03:00:50;101486.91;;;8.16;57.13
30073;BME280;16897;52.422;13.678;2024-02-28T03:04:51;101460.88;;;7.91;57.24
30073;BME280;16897;52.422;13.678;2024-02-28T03:08:52;101491.28;;;8.16;57.03
30073;BME280;16897;52.422;13.678;2024-02-28T03:12:54;101498.88;;;8.22;57.25
30073;BME280;16897;52.422;13.678;2024-02-28T03:16:55;101491.28;;;8.16;57.06
30073;BME280;16897;52.422;13.678;2024-02-28T03:20:57;101476.72;;;8.10;57.07
30073;BME280;16897;52.422;13.678;2024-02-28T03:24:59;101455.56;;;7.94;57.21
30073;BME280;16897;52.422;13.678;2024-02-28T03:29:01;101480.44;;;8.02;57.18
30073;BME280;16897;52.422;13.678;2024-02-28T03:33:02;101471.19;;;7.93;57.10
30073;BME280;16897;52.422;13.678;2024-02-28T03:37:04;101491.03;;;7.97;57.17
30073;BME280;16897;52.422;13.678;2024-02-28T03:41:05;101517.47;;;8.10;57.04
30073;BME280;16897;52.422;13.678;2024-02-28T03:45:07;101514.94;;;8.08;57.23
30073;BME280;16897;52.422;13.678;2024-02-28T03:49:08;101506.44;;;8.03;57.08
30073;BME280;16897;52.422;13.678;2024-02-28T03:53:09;101508.28;;;8.00;57.20
30073;BME280;16897;52.422;13.678;2024-02-28T03:57:11;101504.78;;;8.01;57.16
30073;BME280;16897;52.422;13.678;2024-02-28T04:01:12;101507.28;;;8.04;57.06
30073;BME280;16897;52.422;13.678;2024-02-28T04:05:14;101503.09;;;8.00;57.17
30073;BME280;16897;52.422;13.678;2024-02-28T04:09:16;101480.41;;;7.76;57.29
30073;BME280;16897;52.422;13.678;2024-02-28T04:13:17;101519.47;;;8.02;57.21
30073;BME280;16897;52.422;13.678;2024-02-28T04:17:19;101523.94;;;7.98;57.21
30073;BME280;16897;52.422;13.678;2024-02-28T04:21:20;101521.47;;;7.93;57.11
30073;BME280;16897;52.422;13.678;2024-02-28T04:25:22;101485.66;;;7.75;57.31
30073;BME280;16897;52.422;13.678;2024-02-28T04:29:23;101532.66;;;7.95;57.16
30073;BME280;16897;52.422;13.678;2024-02-28T04:33:25;101507.69;;;7.91;57.25
30073;BME280;16897;52.422;13.678;2024-02-28T04:37:26;101510.41;;;7.87;57.27
30073;BME280;16897;52.422;13.678;2024-02-28T04:41:28;101537.88;;;7.95;57.27
30073;BME280;16897;52.422;13.678;2024-02-28T04:45:29;101524.94;;;7.94;57.39
30073;BME280;16897;52.422;13.678;2024-02-28T04:49:31;101538.88;;;7.91;57.33
30073;BME280;16897;52.422;13.678;2024-02-28T04:53:32;101547.63;;;7.89;57.15
30073;BME280;16897;52.422;13.678;2024-02-28T04:57:34;101550.34;;;7.84;57.37
30073;BME280;16897;52.422;13.678;2024-02-28T05:01:35;101536.69;;;7.78;57.37
30073;BME280;16897;52.422;13.678;2024-02-28T05:05:40;101553.88;;;7.83;57.41
30073;BME280;16897;52.422;13.678;2024-02-28T05:09:41;101558.28;;;7.80;57.32
30073;BME280;16897;52.422;13.678;2024-02-28T05:13:42;101561.13;;;7.72;57.26
30073;BME280;16897;52.422;13.678;2024-02-28T05:17:44;101556.72;;;7.74;57.28
30073;BME280;16897;52.422;13.678;2024-02-28T05:21:45;101569.78;;;7.72;57.21
30073;BME280;16897;52.422;13.678;2024-02-28T05:25:46;101566.38;;;7.70;57.19
30073;BME280;16897;52.422;13.678;2024-02-28T05:29:48;101531.50;;;7.48;57.29
30073;BME280;16897;52.422;13.678;2024-02-28T05:33:56;101581.13;;;7.70;57.40
30073;BME280;16897;52.422;13.678;2024-02-28T05:37:58;101595.84;;;7.69;57.07
30073;BME280;16897;52.422;13.678;2024-02-28T05:41:59;101601.06;;;7.69;57.15
30073;BME280;16897;52.422;13.678;2024-02-28T05:46:00;101584.88;;;7.60;57.37
30073;BME280;16897;52.422;13.678;2024-02-28T05:50:02;101613.19;;;7.69;57.42
30073;BME280;16897;52.422;13.678;2024-02-28T05:54:04;101606.53;;;7.60;57.31
30073;BME280;16897;52.422;13.678;2024-02-28T05:58:05;101609.94;;;7.62;57.43
30073;BME280;16897;52.422;13.678;2024-02-28T06:02:07;101620.28;;;7.64;57.26
30073;BME280;16897;52.422;13.678;2024-02-28T06:06:08;101627.00;;;7.72;57.38
30073;BME280;16897;52.422;13.678;2024-02-28T06:10:10;101580.84;;;7.49;57.38
30073;BME280;16897;52.422;13.678;2024-02-28T06:14:11;101628.78;;;7.70;57.21
30073;BME280;16897;52.422;13.678;2024-02-28T06:18:13;101592.16;;;7.48;57.43
30073;BME280;16897;52.422;13.678;2024-02-28T06:22:14;101619.66;;;7.56;57.34
30073;BME280;16897;52.422;13.678;2024-02-28T06:26:16;101640.94;;;7.68;57.37
30073;BME280;16897;52.422;13.678;2024-02-28T06:30:18;101628.94;;;7.64;57.32
30073;BME280;16897;52.422;13.678;2024-02-28T06:34:19;101613.03;;;7.45;57.38
30073;BME280;16897;52.422;13.678;2024-02-28T06:38:21;101648.66;;;7.71;57.38
30073;BME280;16897;52.422;13.678;2024-02-28T06:42:22;101665.16;;;7.70;57.37
30073;BME280;16897;52.422;13.678;2024-02-28T06:46:24;101671.25;;;7.69;57.37
30073;BME280;16897;52.422;13.678;2024-02-28T06:50:25;101661.84;;;7.65;57.44
30073;BME280;16897;52.422;13.678;2024-02-28T06:54:27;101665.34;;;7.64;57.43
30073;BME280;16897;52.422;13.678;2024-02-28T06:58:28;101686.69;;;7.75;57.49
30073;BME280;16897;52.422;13.678;2024-02-28T07:02:30;101679.03;;;7.69;57.23
30073;BME280;16897;52.422;13.678;2024-02-28T07:06:34;101668.06;;;7.60;57.45
30073;BME280;16897;52.422;13.678;2024-02-28T07:10:36;101672.19;;;7.67;57.33
30073;BME280;16897;52.422;13.678;2024-02-28T07:14:38;101689.44;;;7.69;57.41
30073;BME280;16897;52.422;13.678;2024-02-28T07:18:39;101659.50;;;7.56;57.33
30073;BME280;16897;52.422;13.678;2024-02-28T07:22:42;101685.31;;;7.62;57.47
30073;BME280;16897;52.422;13.678;2024-02-28T07:26:44;101701.56;;;7.70;57.33
30073;BME280;16897;52.422;13.678;2024-02-28T07:30:46;101680.59;;;7.45;57.38
30073;BME280;16897;52.422;13.678;2024-02-28T07:34:49;101670.22;;;7.44;57.35
30073;BME280;16897;52.422;13.678;2024-02-28T07:38:50;101690.72;;;7.54;57.53
30073;BME280;16897;52.422;13.678;2024-02-28T07:42:53;101700.00;;;7.63;57.42
30073;BME280;16897;52.422;13.678;2024-02-28T07:46:54;101716.31;;;7.70;57.41
30073;BME280;16897;52.422;13.678;2024-02-28T07:50:56;101695.75;;;7.61;57.28
30073;BME280;16897;52.422;13.678;2024-02-28T07:54:57;101671.81;;;7.48;57.33
30073;BME280;16897;52.422;13.678;2024-02-28T07:58:59;101708.53;;;7.68;57.48
30073;BME280;16897;52.422;13.678;2024-02-28T08:03:00;101709.38;;;7.69;57.54
30073;BME280;16897;52.422;13.678;2024-02-28T08:07:05;101716.22;;;7.73;57.53
30073;BME280;16897;52.422;13.678;2024-02-28T08:11:07;101696.75;;;7.57;57.41
30073;BME280;16897;52.422;13.678;2024-02-28T08:15:09;101730.91;;;7.74;57.33
30073;BME280;16897;52.422;13.678;2024-02-28T08:19:10;101727.47;;;7.73;57.58
30073;BME280;16897;52.422;13.678;2024-02-28T08:23:12;101716.47;;;7.64;57.55
30073;BME280;16897;52.422;13.678;2024-02-28T08:27:13;101734.44;;;7.73;57.58
30073;BME280;16897;52.422;13.678;2024-02-28T08:31:15;101745.69;;;7.73;57.50
30073;BME280;16897;52.422;13.678;2024-02-28T08:35:20;101744.75;;;7.76;57.49
30073;BME280;16897;52.422;13.678;2024-02-28T08:39:21;101744.75;;;7.76;57.60
30073;BME280;16897;52.422;13.678;2024-02-28T08:43:24;101749.88;;;7.78;57.39
30073;BME280;16897;52.422;13.678;2024-02-28T08:47:26;101749.94;;;7.76;57.44
30073;BME280;16897;52.422;13.678;2024-02-28T08:51:28;101757.75;;;7.76;57.60
30073;BME280;16897;52.422;13.678;2024-02-28T08:55:30;101747.50;;;7.70;57.59
30073;BME280;16897;52.422;13.678;2024-02-28T08:59:32;101772.34;;;7.80;57.39
30073;BME280;16897;52.422;13.678;2024-02-28T09:03:33;101745.88;;;7.66;57.36
30073;BME280;16897;52.422;13.678;2024-02-28T09:07:34;101728.81;;;7.56;57.43
30073;BME280;16897;52.422;13.678;2024-02-28T09:11:36;101778.44;;;7.79;57.50
30073;BME280;16897;52.422;13.678;2024-02-28T09:15:38;101767.44;;;7.69;57.51
30073;BME280;16897;52.422;13.678;2024-02-28T09:19:39;101763.97;;;7.69;57.54
30073;BME280;16897;52.422;13.678;2024-02-28T09:23:41;101764.03;;;7.67;57.70
30073;BME280;16897;52.422;13.678;2024-02-28T09:27:43;101743.53;;;7.57;57.71
30073;BME280;16897;52.422;13.678;2024-02-28T09:31:44;101750.31;;;7.62;57.55
30073;BME280;16897;52.422;13.678;2024-02-28T09:35:46;101735.88;;;7.50;57.40
30073;BME280;16897;52.422;13.678;2024-02-28T09:39:48;101744.53;;;7.51;57.59
30073;BME280;16897;52.422;13.678;2024-02-28T09:43:49;101754.97;;;7.49;57.60
30073;BME280;16897;52.422;13.678;2024-02-28T09:47:51;101755.13;;;7.43;57.62
30073;BME280;16897;52.422;13.678;2024-02-28T09:51:52;101737.38;;;7.26;57.50
30073;BME280;16897;52.422;13.678;2024-02-28T09:55:54;101773.34;;;7.42;57.64
30073;BME280;16897;52.422;13.678;2024-02-28T09:59:56;101757.19;;;7.29;57.70
30073;BME280;16897;52.422;13.678;2024-02-28T10:03:59;101788.84;;;7.45;57.60
30073;BME280;16897;52.422;13.678;2024-02-28T10:08:01;101776.94;;;7.38;57.69
30073;BME280;16897;52.422;13.678;2024-02-28T10:12:03;101791.50;;;7.43;57.58
30073;BME280;16897;52.422;13.678;2024-02-28T10:16:06;101781.31;;;7.34;57.51
30073;BME280;16897;52.422;13.678;2024-02-28T10:20:08;101806.19;;;7.46;57.60
30073;BME280;16897;52.422;13.678;2024-02-28T10:24:11;101797.63;;;7.41;57.73
30073;BME280;16897;52.422;13.678;2024-02-28T10:28:14;101810.47;;;7.47;57.64
30073;BME280;16897;52.422;13.678;2024-02-28T10:32:16;101807.13;;;7.42;57.51
30073;BME280;16897;52.422;13.678;2024-02-28T10:36:17;101813.97;;;7.46;57.40
30073;BME280;16897;52.422;13.678;2024-02-28T10:40:20;101832.97;;;7.48;57.53
30073;BME280;16897;52.422;13.678;2024-02-28T10:44:22;101823.63;;;7.41;57.54
30073;BME280;16897;52.422;13.678;2024-02-28T10:48:24;101820.25;;;7.37;57.54
30073;BME280;16897;52.422;13.678;2024-02-28T10:52:26;101813.44;;;7.31;57.42
30073;BME280;16897;52.422;13.678;2024-02-28T10:56:28;101834.88;;;7.40;57.46
30073;BME280;16897;52.422;13.678;2024-02-28T11:00:31;101800.00;;;7.16;57.53
30073;BME280;16897;52.422;13.678;2024-02-28T11:04:32;101834.03;;;7.39;57.48
30073;BME280;16897;52.422;13.678;2024-02-28T11:08:34;101827.16;;;7.37;57.65
30073;BME280;16897;52.422;13.678;2024-02-28T11:12:36;101837.56;;;7.37;57.48
30073;BME280;16897;52.422;13.678;2024-02-28T11:16:38;101829.03;;;7.31;57.54
30073;BME280;16897;52.422;13.678;2024-02-28T11:20:43;101823.88;;;7.30;57.76
30073;BME280;16897;52.422;13.678;2024-02-28T11:24:47;101792.38;;;7.08;57.45
30073;BME280;16897;52.422;13.678;2024-02-28T11:28:51;101842.75;;;7.38;57.65
30073;BME280;16897;52.422;13.678;2024-02-28T11:32:52;101846.09;;;7.42;57.46
30073;BME280;16897;52.422;13.678;2024-02-28T11:36:59;101838.38;;;7.40;57.53
30073;BME280;16897;52.422;13.678;2024-02-28T11:41:01;101836.56;;;7.42;57.58
30073;BME280;16897;52.422;13.678;2024-02-28T11:45:02;101846.84;;;7.47;57.56
30073;BME280;16897;52.422;13.678;2024-02-28T11:49:06;101844.41;;;7.41;57.42
30073;BME280;16897;52.422;13.678;2024-02-28T11:53:08;101850.38;;;7.44;57.57
30073;BME280;16897;52.422;13.678;2024-02-28T11:57:10;101856.56;;;7.40;57.60
30073;BME280;16897;52.422;13.678;2024-02-28T12:01:15;101835.09;;;7.32;57.65
30073;BME280;16897;52.422;13.678;2024-02-28T12:05:18;101843.69;;;7.34;57.68
30073;BME280;16897;52.422;13.678;2024-02-28T12:09:21;101809.63;;;7.11;57.44
30073;BME280;16897;52.422;13.678;2024-02-28T12:13:22;101800.84;;;7.15;57.57
30073;BME280;16897;52.422;13.678;2024-02-28T12:17:25;101841.16;;;7.32;57.38
30073;BME280;16897;52.422;13.678;2024-02-28T12:21:26;101836.81;;;7.31;57.45
30073;BME280;16897;52.422;13.678;2024-02-28T12:25:28;101858.00;;;7.52;57.56
30073;BME280;16897;52.422;13.678;2024-02-28T12:29:29;101845.19;;;7.44;57.65
30073;BME280;16897;52.422;13.678;2024-02-28T12:33:32;101833.16;;;7.40;57.57
30073;BME280;16897;52.422;13.678;2024-02-28T12:37:34;101848.53;;;7.49;57.42
30073;BME280;16897;52.422;13.678;2024-02-28T12:41:35;101857.06;;;7.54;57.73
30073;BME280;16897;52.422;13.678;2024-02-28T12:45:38;101845.03;;;7.50;57.53
30073;BME280;16897;52.422;13.678;2024-02-28T12:49:39;101839.06;;;7.47;57.70
30073;BME280;16897;52.422;13.678;2024-02-28T12:53:41;101854.47;;;7.54;57.63
30073;BME280;16897;52.422;13.678;2024-02-28T12:57:43;101861.25;;;7.60;57.48
30073;BME280;16897;52.422;13.678;2024-02-28T13:01:45;101852.81;;;7.50;57.45
30073;BME280;16897;52.422;13.678;2024-02-28T13:05:49;101857.16;;;7.51;57.51
30073;BME280;16897;52.422;13.678;2024-02-28T13:09:50;101836.63;;;7.41;57.67
30073;BME280;16897;52.422;13.678;2024-02-28T13:13:52;101829.81;;;7.35;57.48
30073;BME280;16897;52.422;13.678;2024-02-28T13:17:54;101821.22;;;7.31;57.50
30073;BME280;16897;52.422;13.678;2024-02-28T13:21:55;101868.16;;;7.61;57.58
30073;BME280;16897;52.422;13.678;2024-02-28T13:25:57;101865.53;;;7.63;57.52
30073;BME280;16897;52.422;13.678;2024-02-28T13:29:58;101861.91;;;7.70;57.64
30073;BME280;16897;52.422;13.678;2024-02-28T13:34:01;101856.72;;;7.68;57.54
30073;BME280;16897;52.422;13.678;2024-02-28T13:38:04;101813.16;;;7.44;57.54
30073;BME280;16897;52.422;13.678;2024-02-28T13:42:06;101831.06;;;7.56;57.55
30073;BME280;16897;52.422;13.678;2024-02-28T13:46:10;101834.19;;;7.69;57.64
30073;BME280;16897;52.422;13.678;2024-02-28T13:50:11;101823.78;;;7.69;57.53
30073;BME280;16897;52.422;13.678;2024-02-28T13:54:13;101851.09;;;7.85;57.70
30073;BME280;16897;52.422;13.678;2024-02-28T13:58:14;101851.97;;;7.86;57.58
30073;BME280;16897;52.422;13.678;2024-02-28T14:02:19;101845.91;;;7.85;57.42
30073;BME280;16897;52.422;13.678;2024-02-28T14:06:21;101862.28;;;7.89;57.41
30073;BME280;16897;52.422;13.678;2024-02-28T14:10:22;101863.97;;;7.91;57.36
30073;BME280;16897;52.422;13.678;2024-02-28T14:14:24;101841.69;;;7.81;57.51
30073;BME280;16897;52.422;13.678;2024-02-28T14:18:25;101847.63;;;7.86;57.51
30073;BME280;16897;52.422;13.678;2024-02-28T14:22:26;101815.25;;;7.64;57.31
30073;BME280;16897;52.422;13.678;2024-02-28T14:26:28;101799.88;;;7.54;57.57
30073;BME280;16897;52.422;13.678;2024-02-28T14:30:29;101795.59;;;7.53;57.32
30073;BME280;16897;52.422;13.678;2024-02-28T14:34:30;101819.56;;;7.65;57.28
30073;BME280;16897;52.422;13.678;2024-02-28T14:38:33;101856.38;;;7.82;57.42
30073;BME280;16897;52.422;13.678;2024-02-28T14:42:34;101860.66;;;7.85;57.25
30073;BME280;16897;52.422;13.678;2024-02-28T14:46:36;101836.78;;;7.69;57.45
30073;BME280;16897;52.422;13.678;2024-02-28T14:50:37;101853.03;;;7.77;57.16
30073;BME280;16897;52.422;13.678;2024-02-28T14:54:39;101796.75;;;7.42;57.33
30073;BME280;16897;52.422;13.678;2024-02-28T14:58:41;101855.53;;;7.82;57.29
30073;BME280;16897;52.422;13.678;2024-02-28T15:02:43;101836.78;;;7.69;57.54
30073;BME280;16897;52.422;13.678;2024-02-28T15:06:45;101853.78;;;7.82;57.32
30073;BME280;16897;52.422;13.678;2024-02-28T15:10:47;101833.25;;;7.71;57.34
30073;BME280;16897;52.422;13.678;2024-02-28T15:14:48;101829.91;;;7.66;57.26
30073;BME280;16897;52.422;13.678;2024-02-28T15:18:50;101853.59;;;7.90;57.32
30073;BME280;16897;52.422;13.678;2024-02-28T15:22:51;101840.00;;;7.79;57.52
30073;BME280;16897;52.422;13.678;2024-02-28T15:26:53;101838.16;;;7.82;57.39
30073;BME280;16897;52.422;13.678;2024-02-28T15:30:54;101860.44;;;7.92;57.34
30073;BME280;16897;52.422;13.678;2024-02-28T15:34:56;101865.56;;;7.95;57.36
30073;BME280;16897;52.422;13.678;2024-02-28T15:38:57;101842.50;;;7.83;57.24
30073;BME280;16897;52.422;13.678;2024-02-28T15:42:59;101872.41;;;8.00;57.40
30073;BME280;16897;52.422;13.678;2024-02-28T15:47:00;101854.56;;;7.86;57.27
30073;BME280;16897;52.422;13.678;2024-02-28T15:51:02;101844.19;;;7.84;57.16
30073;BME280;16897;52.422;13.678;2024-02-28T15:55:04;101845.91;;;7.85;57.29
30073;BME280;16897;52.422;13.678;2024-02-28T15:59:06;101849.28;;;7.89;57.09
30073;BME280;16897;52.422;13.678;2024-02-28T16:03:08;101868.16;;;7.97;57.10
30073;BME280;16897;52.422;13.678;2024-02-28T16:07:09;101858.78;;;7.90;57.25
30073;BME280;16897;52.422;13.678;2024-02-28T16:11:11;101856.16;;;7.91;57.30
30073;BME280;16897;52.422;13.678;2024-02-28T16:15:12;101870.75;;;7.97;57.20
30073;BME280;16897;52.422;13.678;2024-02-28T16:19:14;101852.94;;;7.82;57.13
30073;BME280;16897;52.422;13.678;2024-02-28T16:23:15;101835.91;;;7.70;57.11
30073;BME280;16897;52.422;13.678;2024-02-28T16:27:17;101852.28;;;7.73;56.83
30073;BME280;16897;52.422;13.678;2024-02-28T16:31:18;101864.41;;;7.73;56.96
30073;BME280;16897;52.422;13.678;2024-02-28T16:35:19;101852.56;;;7.61;57.10
30073;BME280;16897;52.422;13.678;2024-02-28T16:39:21;101862.97;;;7.61;56.96
30073;BME280;16897;52.422;13.678;2024-02-28T16:43:22;101860.56;;;7.53;56.98
30073;BME280;16897;52.422;13.678;2024-02-28T16:47:23;101865.09;;;7.45;57.00
30073;BME280;16897;52.422;13.678;2024-02-28T16:51:25;101874.84;;;7.36;57.07
30073;BME280;16897;52.422;13.678;2024-02-28T16:55:26;101894.72;;;7.38;57.11
30073;BME280;16897;52.422;13.678;2024-02-28T16:59:28;101900.06;;;7.30;57.04
30073;BME280;16897;52.422;13.678;2024-02-28T17:03:29;101855.78;;;6.98;56.92
30073;BME280;16897;52.422;13.678;2024-02-28T17:07:31;101888.47;;;7.08;56.93
30073;BME280;16897;52.422;13.678;2024-02-28T17:11:32;101890.31;;;7.01;56.76
30073;BME280;16897;52.422;13.678;2024-02-28T17:15:34;101879.31;;;6.90;56.92
30073;BME280;16897;52.422;13.678;2024-02-28T17:19:35;101895.78;;;6.89;56.70
30073;BME280;16897;52.422;13.678;2024-02-28T17:23:37;101883.19;;;6.71;56.75
30073;BME280;16897;52.422;13.678;2024-02-28T17:27:39;101891.91;;;6.67;56.61
30073;BME280;16897;52.422;13.678;2024-02-28T17:31:40;101880.94;;;6.54;56.76
30073;BME280;16897;52.422;13.678;2024-02-28T17:35:41;101902.56;;;6.53;56.68
30073;BME280;16897;52.422;13.678;2024-02-28T17:39:44;101908.66;;;6.50;56.86
30073;BME280;16897;52.422;13.678;2024-02-28T17:43:46;101881.41;;;6.29;56.59
30073;BME280;16897;52.422;13.678;2024-02-28T17:47:47;101885.00;;;6.22;56.76
30073;BME280;16897;52.422;13.678;2024-02-28T17:51:49;101874.94;;;6.04;56.83
30073;BME280;16897;52.422;13.678;2024-02-28T17:55:50;101902.44;;;6.14;56.81
30073;BME280;16897;52.422;13.678;2024-02-28T17:59:51;101920.47;;;6.20;56.61
30073;BME280;16897;52.422;13.678;2024-02-28T18:03:54;101878.59;;;5.92;56.60
30073;BME280;16897;52.422;13.678;2024-02-28T18:07:55;101870.91;;;5.86;56.59
30073;BME280;16897;52.422;13.678;2024-02-28T18:11:57;101872.81;;;5.76;56.60
30073;BME280;16897;52.422;13.678;2024-02-28T18:15:59;101870.31;;;5.70;56.54
30073;BME280;16897;52.422;13.678;2024-02-28T18:20:01;101922.66;;;5.93;56.56
30073;BME280;16897;52.422;13.678;2024-02-28T18:24:04;101909.88;;;5.80;56.74
30073;BME280;16897;52.422;13.678;2024-02-28T18:28:05;101912.53;;;5.76;56.72
30073;BME280;16897;52.422;13.678;2024-02-28T18:32:07;101908.31;;;5.69;56.79
30073;BME280;16897;52.422;13.678;2024-02-28T18:36:09;101909.28;;;5.64;56.59
30073;BME280;16897;52.422;13.678;2024-02-28T18:40:11;101919.69;;;5.62;56.77
30073;BME280;16897;52.422;13.678;2024-02-28T18:44:16;101912.75;;;5.61;56.81
30073;BME280;16897;52.422;13.678;2024-02-28T18:48:17;101860.63;;;5.25;56.71
30073;BME280;16897;52.422;13.678;2024-02-28T18:52:19;101900.97;;;5.43;56.53
30073;BME280;16897;52.422;13.678;2024-02-28T18:56:20;101918.06;;;5.53;56.50
30073;BME280;16897;52.422;13.678;2024-02-28T19:00:21;101922.53;;;5.44;56.59
30073;BME280;16897;52.422;13.678;2024-02-28T19:04:23;101917.41;;;5.39;56.66
30073;BME280;16897;52.422;13.678;2024-02-28T19:08:25;101879.03;;;5.07;56.49
30073;BME280;16897;52.422;13.678;2024-02-28T19:12:26;101895.38;;;5.10;56.46
30073;BME280;16897;52.422;13.678;2024-02-28T19:16:27;101920.34;;;5.16;56.54
30073;BME280;16897;52.422;13.678;2024-02-28T19:20:30;101935.00;;;5.17;56.48
30073;BME280;16897;52.422;13.678;2024-02-28T19:24:33;101911.91;;;4.99;56.47
30073;BME280;16897;52.422;13.678;2024-02-28T19:28:34;101912.91;;;4.88;56.53
30073;BME280;16897;52.422;13.678;2024-02-28T19:32:36;101882.16;;;4.64;56.54
30073;BME280;16897;52.422;13.678;2024-02-28T19:36:40;101914.78;;;4.77;56.59
30073;BME280;16897;52.422;13.678;2024-02-28T19:40:41;101924.31;;;4.75;56.58
30073;BME280;16897;52.422;13.678;2024-02-28T19:44:42;101917.41;;;4.74;56.46
30073;BME280;16897;52.422;13.678;2024-02-28T19:48:44;101866.97;;;4.38;56.40
30073;BME280;16897;52.422;13.678;2024-02-28T19:52:47;101917.56;;;4.62;56.48
30073;BME280;16897;52.422;13.678;2024-02-28T19:56:48;101904.75;;;4.48;56.54
30073;BME280;16897;52.422;13.678;2024-02-28T20:00:49;101934.81;;;4.60;56.81
30073;BME280;16897;52.422;13.678;2024-02-28T20:04:51;101905.66;;;4.46;56.73
30073;BME280;16897;52.422;13.678;2024-02-28T20:08:52;101932.28;;;4.55;56.71
30073;BME280;16897;52.422;13.678;2024-02-28T20:12:54;101919.56;;;4.35;56.76
30073;BME280;16897;52.422;13.678;2024-02-28T20:16:56;101948.72;;;4.51;56.80
30073;BME280;16897;52.422;13.678;2024-02-28T20:20:58;101935.94;;;4.36;56.76
30073;BME280;16897;52.422;13.678;2024-02-28T20:25:01;101923.91;;;4.29;56.57
30073;BME280;16897;52.422;13.678;2024-02-28T20:29:02;101947.06;;;4.42;56.88
30073;BME280;16897;52.422;13.678;2024-02-28T20:33:04;101944.47;;;4.42;56.62
30073;BME280;16897;52.422;13.678;2024-02-28T20:37:05;101922.28;;;4.21;56.60
30073;BME280;16897;52.422;13.678;2024-02-28T20:41:07;101921.47;;;4.15;56.53
30073;BME280;16897;52.422;13.678;2024-02-28T20:45:08;101921.47;;;4.15;56.77
30073;BME280;16897;52.422;13.678;2024-02-28T20:49:10;101916.38;;;4.09;56.92
30073;BME280;16897;52.422;13.678;2024-02-28T20:53:12;101912.97;;;4.04;56.96
30073;BME280;16897;52.422;13.678;2024-02-28T20:57:14;101884.69;;;3.87;56.72
30073;BME280;16897;52.422;13.678;2024-02-28T21:01:15;101911.25;;;4.01;56.55
30073;BME280;16897;52.422;13.678;2024-02-28T21:05:18;101891.63;;;3.80;56.62